createdAt,value
2022-11-10T00:02:17.722Z,58.22
2022-11-10T00:05:02.490Z,58.30
2022-11-10T00:07:47.333Z,58.31
2022-11-10T00:10:32.262Z,58.43
2022-11-10T00:13:17.114Z,58.25
2022-11-10T00:16:21.201Z,58.30
2022-11-10T00:19:06.276Z,58.27
2022-11-10T00:21:51.106Z,58.39
2022-11-10T00:24:35.778Z,58.18
2022-11-10T00:27:20.654Z,58.25
2022-11-10T00:30:05.928Z,58.27
2022-11-10T00:32:50.652Z,58.20
2022-11-10T00:35:35.626Z,58.15
2022-11-10T00:38:20.426Z,58.06
2022-11-10T00:41:05.372Z,58.05
2022-11-10T00:43:50.150Z,58.34
2022-11-10T00:46:35.046Z,58.20
2022-11-10T00:49:19.833Z,57.87
2022-11-10T00:52:04.674Z,58.00
2022-11-10T00:54:49.509Z,58.08
2022-11-10T00:57:34.339Z,57.96
2022-11-10T01:00:19.311Z,57.88
2022-11-10T01:03:04.092Z,58.22
2022-11-10T01:05:48.910Z,58.08
2022-11-10T01:08:33.686Z,57.94
2022-11-10T01:11:25.555Z,57.92
2022-11-10T01:14:10.487Z,58.22
2022-11-10T01:16:55.252Z,58.15
2022-11-10T01:19:41.566Z,57.96
2022-11-10T01:22:26.610Z,57.93
2022-11-10T01:25:11.438Z,58.05
2022-11-10T01:27:56.374Z,58.03
2022-11-10T01:30:41.147Z,57.67
2022-11-10T01:33:26.007Z,57.99
2022-11-10T01:36:10.797Z,57.95
2022-11-10T01:38:55.830Z,57.90
2022-11-10T01:41:40.498Z,57.91
2022-11-10T01:44:25.701Z,57.88
2022-11-10T01:47:10.876Z,57.86
2022-11-10T01:49:55.665Z,58.04
2022-11-10T01:52:40.668Z,57.93
2022-11-10T01:55:25.616Z,57.95
2022-11-10T01:58:10.749Z,57.96
2022-11-10T02:00:55.606Z,57.98
2022-11-10T02:03:44.077Z,57.70
2022-11-10T02:06:30.079Z,57.83
2022-11-10T02:09:15.206Z,57.95
2022-11-10T02:12:00.144Z,57.68
2022-11-10T02:14:44.953Z,57.86
2022-11-10T02:17:29.798Z,57.86
2022-11-10T02:20:15.761Z,57.92
2022-11-10T02:23:10.802Z,57.99
2022-11-10T02:25:56.062Z,57.70
2022-11-10T02:28:41.346Z,58.03
2022-11-10T02:31:26.169Z,58.19
2022-11-10T02:34:11.063Z,57.78
2022-11-10T02:36:55.929Z,57.95
2022-11-10T02:39:40.637Z,57.86
2022-11-10T02:42:25.498Z,57.86
2022-11-10T02:45:10.333Z,57.90
2022-11-10T02:47:55.120Z,57.58
2022-11-10T02:50:39.923Z,57.71
2022-11-10T02:53:25.009Z,57.84
2022-11-10T02:56:10.175Z,57.82
2022-11-10T02:58:55.019Z,57.61
2022-11-10T03:01:40.427Z,57.67
2022-11-10T03:04:25.291Z,57.78
2022-11-10T03:07:10.360Z,57.65
2022-11-10T03:09:55.746Z,57.67
2022-11-10T03:12:40.906Z,57.56
2022-11-10T03:15:26.181Z,57.71
2022-11-10T03:18:11.142Z,57.71
2022-11-10T03:20:56.034Z,57.70
2022-11-10T03:23:40.776Z,57.67
2022-11-10T03:26:25.718Z,57.76
2022-11-10T03:29:10.625Z,57.76
2022-11-10T03:31:55.433Z,57.85
2022-11-10T03:34:40.181Z,57.78
2022-11-10T03:37:25.031Z,57.79
2022-11-10T03:40:10.022Z,57.89
2022-11-10T03:42:54.986Z,57.84
2022-11-10T03:45:40.005Z,57.79
2022-11-10T03:48:24.837Z,57.93
2022-11-10T03:51:09.615Z,57.85
2022-11-10T03:53:54.390Z,57.72
2022-11-10T03:56:39.350Z,57.79
2022-11-10T03:59:24.222Z,57.64
2022-11-10T04:02:09.117Z,57.57
2022-11-10T04:05:13.187Z,57.51
2022-11-10T04:08:19.956Z,57.79
2022-11-10T04:11:05.035Z,57.57
2022-11-10T04:14:08.590Z,57.67
2022-11-10T04:16:53.677Z,57.55
2022-11-10T04:19:38.547Z,57.76
2022-11-10T04:22:42.390Z,57.79
2022-11-10T04:25:27.527Z,57.68
2022-11-10T04:28:12.420Z,57.80
2022-11-10T04:30:57.265Z,57.68
2022-11-10T04:33:42.317Z,57.82
2022-11-10T04:36:27.819Z,57.83
2022-11-10T04:39:12.901Z,57.77
2022-11-10T04:42:02.535Z,57.60
2022-11-10T04:44:48.345Z,57.53
2022-11-10T04:47:33.411Z,57.59
2022-11-10T04:50:18.170Z,57.54
2022-11-10T04:53:02.928Z,57.61
2022-11-10T04:55:47.874Z,57.50
2022-11-10T04:58:32.562Z,57.64
2022-11-10T05:01:18.078Z,57.69
2022-11-10T05:04:05.501Z,57.70
2022-11-10T05:06:50.791Z,57.53
2022-11-10T05:09:35.904Z,57.70
2022-11-10T05:12:22.475Z,57.64
2022-11-10T05:15:07.762Z,57.63
2022-11-10T05:17:53.390Z,57.69
2022-11-10T05:20:38.178Z,57.78
2022-11-10T05:23:38.346Z,57.57
2022-11-10T05:26:23.328Z,57.65
2022-11-10T05:29:08.166Z,57.70
2022-11-10T05:31:53.003Z,57.59
2022-11-10T05:34:37.822Z,57.55
2022-11-10T05:37:22.680Z,57.67
2022-11-10T05:40:07.645Z,57.57
2022-11-10T05:42:52.958Z,57.61
2022-11-10T05:45:38.131Z,57.54
2022-11-10T05:48:22.924Z,57.46
2022-11-10T05:51:07.625Z,57.54
2022-11-10T05:53:52.465Z,57.54
2022-11-10T05:56:37.301Z,57.67
2022-11-10T05:59:22.104Z,57.69
2022-11-10T06:02:06.894Z,57.73
2022-11-10T06:04:51.567Z,57.72
2022-11-10T06:07:37.688Z,58.17
2022-11-10T06:10:22.765Z,58.08
2022-11-10T06:13:08.057Z,58.03
2022-11-10T06:15:53.042Z,58.54
2022-11-10T06:18:37.874Z,58.11
2022-11-10T06:21:22.732Z,58.75
2022-11-10T06:24:07.626Z,58.59
2022-11-10T06:26:52.501Z,58.46
2022-11-10T06:29:37.251Z,58.64
2022-11-10T06:32:22.190Z,58.81
2022-11-10T06:35:07.148Z,58.94
2022-11-10T06:37:59.212Z,59.13
2022-11-10T06:40:44.309Z,59.23
2022-11-10T06:43:28.997Z,58.83
2022-11-10T06:46:13.909Z,58.93
2022-11-10T06:48:58.894Z,59.03
2022-11-10T06:51:43.711Z,59.32
2022-11-10T06:54:28.668Z,59.31
2022-11-10T06:57:13.433Z,59.45
2022-11-10T06:59:58.352Z,59.46
2022-11-10T07:02:43.173Z,59.29
2022-11-10T07:05:27.952Z,59.45
2022-11-10T07:08:16.456Z,59.05
2022-11-10T07:11:01.221Z,59.22
2022-11-10T07:13:46.098Z,59.41
2022-11-10T07:16:30.938Z,59.26
2022-11-10T07:19:15.780Z,59.41
2022-11-10T07:22:00.511Z,59.22
2022-11-10T07:24:45.312Z,59.32
2022-11-10T07:27:30.171Z,59.42
2022-11-10T07:30:15.030Z,59.42
2022-11-10T07:32:59.921Z,59.31
2022-11-10T07:35:45.464Z,59.50
2022-11-10T07:38:30.501Z,59.43
2022-11-10T07:41:15.375Z,59.38
2022-11-10T07:44:00.280Z,59.40
2022-11-10T07:46:45.119Z,59.17
2022-11-10T07:49:29.997Z,59.17
2022-11-10T07:52:14.818Z,59.33
2022-11-10T07:54:59.624Z,59.35
2022-11-10T07:57:44.536Z,59.37
2022-11-10T08:00:29.263Z,59.21
2022-11-10T08:03:15.118Z,59.22
2022-11-10T08:06:00.133Z,59.21
2022-11-10T08:08:47.845Z,59.53
2022-11-10T08:11:32.628Z,59.49
2022-11-10T08:14:17.462Z,59.57
2022-11-10T08:17:02.235Z,59.32
2022-11-10T08:19:47.059Z,59.30
2022-11-10T08:22:31.885Z,59.30
2022-11-10T08:25:16.599Z,59.37
2022-11-10T08:28:02.181Z,59.53
2022-11-10T08:30:47.452Z,59.19
2022-11-10T08:33:32.348Z,59.15
2022-11-10T08:36:17.319Z,59.16
2022-11-10T08:39:01.942Z,59.14
2022-11-10T08:41:46.764Z,59.17
2022-11-10T08:44:31.513Z,59.02
2022-11-10T08:47:16.477Z,59.13
2022-11-10T08:50:01.234Z,59.18
2022-11-10T08:52:45.949Z,58.99
2022-11-10T08:55:30.765Z,59.28
2022-11-10T08:58:19.680Z,59.17
2022-11-10T09:01:08.614Z,59.04
2022-11-10T09:03:53.821Z,59.02
2022-11-10T09:07:09.081Z,58.85
2022-11-10T09:10:06.793Z,55.21
2022-11-10T09:12:52.865Z,54.11
2022-11-10T09:15:37.908Z,55.37
2022-11-10T09:18:22.957Z,54.28
2022-11-10T09:21:11.770Z,54.34
2022-11-10T09:23:56.730Z,54.57
2022-11-10T09:26:45.153Z,54.59
2022-11-10T09:29:30.101Z,54.37
2022-11-10T09:32:15.072Z,54.37
2022-11-10T09:35:00.018Z,54.77
2022-11-10T09:37:44.846Z,54.76
2022-11-10T09:40:53.220Z,53.81
2022-11-10T09:43:46.950Z,52.04
2022-11-10T09:46:38.557Z,54.37
2022-11-10T09:49:37.933Z,55.30
2022-11-10T09:52:23.224Z,55.13
2022-11-10T09:55:15.840Z,54.29
2022-11-10T09:58:00.661Z,53.21
2022-11-10T10:00:48.624Z,52.64
2022-11-10T10:03:33.552Z,52.67
2022-11-10T10:06:20.068Z,52.68
2022-11-10T10:09:11.825Z,52.85
2022-11-10T10:12:03.510Z,52.87
2022-11-10T10:15:07.276Z,53.06
2022-11-10T10:17:55.403Z,52.62
2022-11-10T10:20:43.077Z,52.48
2022-11-10T10:24:02.196Z,51.74
2022-11-10T10:26:38.846Z,51.23
2022-11-10T10:29:24.854Z,51.09
2022-11-10T10:32:11.310Z,50.12
2022-11-10T10:34:57.452Z,50.20
2022-11-10T10:37:43.990Z,50.54
2022-11-10T10:40:29.199Z,49.99
2022-11-10T10:43:13.969Z,48.86
2022-11-10T10:46:11.786Z,48.88
2022-11-10T10:49:31.603Z,49.97
2022-11-10T10:52:17.314Z,50.12
2022-11-10T10:55:05.621Z,50.48
2022-11-10T10:57:51.106Z,50.54
2022-11-10T11:00:43.220Z,50.91
2022-11-10T11:03:29.139Z,51.52
2022-11-10T11:06:13.886Z,51.74
2022-11-10T11:09:14.252Z,52.04
2022-11-10T11:12:00.369Z,52.10
2022-11-10T11:14:46.344Z,52.79
2022-11-10T11:17:31.749Z,52.69
2022-11-10T11:20:16.598Z,52.36
2022-11-10T11:23:03.561Z,52.72
2022-11-10T11:25:48.704Z,52.89
2022-11-10T11:28:36.075Z,52.97
2022-11-10T11:31:23.150Z,53.37
2022-11-10T11:34:11.265Z,53.36
2022-11-10T11:37:18.028Z,53.28
2022-11-10T11:40:10.368Z,53.20
2022-11-10T11:43:16.144Z,53.09
2022-11-10T11:46:06.693Z,52.80
2022-11-10T11:48:55.775Z,52.93
2022-11-10T11:51:45.370Z,53.29
2022-11-10T11:54:37.052Z,53.25
2022-11-10T11:57:26.950Z,52.97
2022-11-10T12:00:13.216Z,52.97
2022-11-10T12:03:17.075Z,53.43
2022-11-10T12:06:12.864Z,53.52
2022-11-10T12:09:00.752Z,53.70
2022-11-10T12:12:02.278Z,53.26
2022-11-10T12:14:49.560Z,54.08
2022-11-10T12:17:43.822Z,54.45
2022-11-10T12:20:47.823Z,54.03
2022-11-10T12:23:38.566Z,53.80
2022-11-10T12:26:43.542Z,53.50
2022-11-10T12:29:31.185Z,53.36
2022-11-10T12:32:31.280Z,53.89
2022-11-10T12:35:22.823Z,53.58
2022-11-10T12:38:08.646Z,53.43
2022-11-10T12:41:01.944Z,52.97
2022-11-10T12:43:58.272Z,52.81
2022-11-10T12:46:45.926Z,53.09
2022-11-10T12:49:33.777Z,52.53
2022-11-10T12:52:20.469Z,52.39
2022-11-10T12:55:05.454Z,51.94
2022-11-10T12:57:50.335Z,51.87
2022-11-10T13:00:37.690Z,51.52
2022-11-10T13:03:36.185Z,51.58
2022-11-10T13:06:28.485Z,51.69
2022-11-10T13:09:32.507Z,51.31
2022-11-10T13:12:21.281Z,51.21
2022-11-10T13:15:26.169Z,52.10
2022-11-10T13:18:11.585Z,52.60
2022-11-10T13:20:56.616Z,52.44
2022-11-10T13:23:44.420Z,53.29
2022-11-10T13:26:44.525Z,53.63
2022-11-10T13:29:34.649Z,53.59
2022-11-10T13:32:22.700Z,53.75
2022-11-10T13:35:26.343Z,54.01
2022-11-10T13:38:29.980Z,54.04
2022-11-10T13:41:22.160Z,54.17
2022-11-10T13:44:19.200Z,54.02
2022-11-10T13:47:07.113Z,54.52
2022-11-10T13:49:51.803Z,54.44
2022-11-10T13:52:44.233Z,54.68
2022-11-10T13:55:40.439Z,54.85
2022-11-10T13:58:26.304Z,54.61
2022-11-10T14:01:17.394Z,55.19
2022-11-10T14:04:02.641Z,55.30
2022-11-10T14:06:48.653Z,55.54
2022-11-10T14:09:39.798Z,55.38
2022-11-10T14:12:30.948Z,55.28
2022-11-10T14:15:30.061Z,55.45
2022-11-10T14:18:17.236Z,55.28
2022-11-10T14:21:02.474Z,55.65
2022-11-10T14:23:51.402Z,55.77
2022-11-10T14:26:41.628Z,55.64
2022-11-10T14:29:28.049Z,55.26
2022-11-10T14:32:18.148Z,55.50
2022-11-10T14:35:02.880Z,55.65
2022-11-10T14:37:47.891Z,55.46
2022-11-10T14:40:32.590Z,55.79
2022-11-10T14:43:27.009Z,55.79
2022-11-10T14:46:12.530Z,55.43
2022-11-10T14:48:58.171Z,55.26
2022-11-10T14:51:42.884Z,55.04
2022-11-10T14:54:27.938Z,55.15
2022-11-10T14:57:15.640Z,55.17
2022-11-10T15:00:00.748Z,55.33
2022-11-10T15:02:45.661Z,55.11
2022-11-10T15:05:30.446Z,55.33
2022-11-10T15:08:16.849Z,55.19
2022-11-10T15:11:01.807Z,55.08
2022-11-10T15:13:46.653Z,55.07
2022-11-10T15:16:32.209Z,55.54
2022-11-10T15:19:29.997Z,55.57
2022-11-10T15:22:30.882Z,55.23
2022-11-10T15:25:16.494Z,55.39
2022-11-10T15:28:13.788Z,55.47
2022-11-10T15:30:59.329Z,55.49
2022-11-10T15:33:45.544Z,55.63
2022-11-10T15:36:34.396Z,55.82
2022-11-10T15:39:20.274Z,55.77
2022-11-10T15:42:11.341Z,55.64
2022-11-10T15:44:58.807Z,55.59
2022-11-10T15:47:43.897Z,55.68
2022-11-10T15:50:28.795Z,56.26
2022-11-10T15:53:14.917Z,56.45
2022-11-10T15:55:59.797Z,56.47
2022-11-10T15:58:48.241Z,56.86
2022-11-10T16:01:33.861Z,56.62
2022-11-10T16:04:18.663Z,56.76
2022-11-10T16:07:03.611Z,56.62
2022-11-10T16:09:48.929Z,56.67
2022-11-10T16:12:34.017Z,56.82
2022-11-10T16:15:19.307Z,56.84
2022-11-10T16:18:04.464Z,56.79
2022-11-10T16:20:49.538Z,56.69
2022-11-10T16:23:34.641Z,56.47
2022-11-10T16:26:21.152Z,56.51
2022-11-10T16:29:09.266Z,56.62
2022-11-10T16:31:54.301Z,56.19
2022-11-10T16:34:39.375Z,56.33
2022-11-10T16:37:24.080Z,56.27
2022-11-10T16:40:11.975Z,56.08
2022-11-10T16:42:56.797Z,56.00
2022-11-10T16:45:42.093Z,56.29
2022-11-10T16:48:30.680Z,56.33
2022-11-10T16:51:17.829Z,56.54
2022-11-10T16:54:02.606Z,56.05
2022-11-10T16:56:47.508Z,56.33
2022-11-10T16:59:32.333Z,56.13
2022-11-10T17:02:28.996Z,56.05
2022-11-10T17:05:14.253Z,56.00
2022-11-10T17:07:59.035Z,56.12
2022-11-10T17:10:43.893Z,55.84
2022-11-10T17:13:28.928Z,56.41
2022-11-10T17:16:25.581Z,55.81
2022-11-10T17:19:20.668Z,56.41
2022-11-10T17:22:05.694Z,56.07
2022-11-10T17:24:54.032Z,56.10
2022-11-10T17:27:38.824Z,56.51
2022-11-10T17:30:23.661Z,56.16
2022-11-10T17:33:08.609Z,56.94
2022-11-10T17:35:53.437Z,56.99
2022-11-10T17:38:38.556Z,56.92
2022-11-10T17:41:23.719Z,56.78
2022-11-10T17:44:15.396Z,56.70
2022-11-10T17:47:00.477Z,56.78
2022-11-10T17:49:45.221Z,56.99
2022-11-10T17:52:30.122Z,56.64
2022-11-10T17:55:25.729Z,56.93
2022-11-10T17:58:13.756Z,56.80
2022-11-10T18:00:58.785Z,57.02
2022-11-10T18:03:43.650Z,57.31
2022-11-10T18:06:28.338Z,57.33
2022-11-10T18:09:13.143Z,57.63
2022-11-10T18:11:57.759Z,57.64
2022-11-10T18:14:42.709Z,57.48
2022-11-10T18:17:27.530Z,57.58
2022-11-10T18:20:12.787Z,57.51
2022-11-10T18:22:59.506Z,57.70
2022-11-10T18:25:44.588Z,57.53
2022-11-10T18:28:29.786Z,57.58
2022-11-10T18:31:14.860Z,57.56
2022-11-10T18:34:00.017Z,57.32
2022-11-10T18:36:44.898Z,57.27
2022-11-10T18:39:29.836Z,57.08
2022-11-10T18:42:14.686Z,57.10
2022-11-10T18:44:59.401Z,57.09
2022-11-10T18:47:44.379Z,56.77
2022-11-10T18:50:29.324Z,56.99
2022-11-10T18:53:14.170Z,57.27
2022-11-10T18:55:59.319Z,57.43
2022-11-10T18:58:44.384Z,56.98
2022-11-10T19:01:29.399Z,56.75
2022-11-10T19:04:14.643Z,57.17
2022-11-10T19:06:59.651Z,56.57
2022-11-10T19:09:44.726Z,56.63
2022-11-10T19:12:30.587Z,56.86
2022-11-10T19:15:15.602Z,57.28
2022-11-10T19:18:00.555Z,57.14
2022-11-10T19:20:45.483Z,57.91
2022-11-10T19:23:30.656Z,58.00
2022-11-10T19:26:21.037Z,57.94
2022-11-10T19:29:07.835Z,57.58
2022-11-10T19:31:52.724Z,57.69
2022-11-10T19:34:37.587Z,57.17
2022-11-10T19:37:22.372Z,57.37
2022-11-10T19:40:07.433Z,57.33
2022-11-10T19:42:52.485Z,57.90
2022-11-10T19:45:37.451Z,58.00
2022-11-10T19:48:22.434Z,59.50
2022-11-10T19:51:09.002Z,59.36
2022-11-10T19:53:57.837Z,58.99
2022-11-10T19:56:42.846Z,58.78
2022-11-10T19:59:27.705Z,58.63
2022-11-10T20:02:13.620Z,58.81
2022-11-10T20:05:13.837Z,58.99
2022-11-10T20:08:10.831Z,58.82
2022-11-10T20:10:59.693Z,59.14
2022-11-10T20:13:44.839Z,58.87
2022-11-10T20:16:29.688Z,59.13
2022-11-10T20:19:14.494Z,59.13
2022-11-10T20:21:59.438Z,59.19
2022-11-10T20:24:48.433Z,59.02
2022-11-10T20:27:35.978Z,59.07
2022-11-10T20:30:23.628Z,59.43
2022-11-10T20:33:08.925Z,59.25
2022-11-10T20:35:53.572Z,59.19
2022-11-10T20:38:38.591Z,59.33
2022-11-10T20:41:24.184Z,59.48
2022-11-10T20:44:09.333Z,59.27
2022-11-10T20:46:55.438Z,59.38
2022-11-10T20:49:40.389Z,59.37
2022-11-10T20:52:25.349Z,59.51
2022-11-10T20:55:18.020Z,59.63
2022-11-10T20:58:03.167Z,59.88
2022-11-10T21:00:48.025Z,59.71
2022-11-10T21:03:32.770Z,59.68
2022-11-10T21:06:17.740Z,59.81
2022-11-10T21:09:02.731Z,59.73
2022-11-10T21:12:06.497Z,59.81
2022-11-10T21:14:51.722Z,59.86
2022-11-10T21:17:40.162Z,59.86
2022-11-10T21:20:27.793Z,60.14
2022-11-10T21:23:12.740Z,60.17
2022-11-10T21:25:58.140Z,59.98
2022-11-10T21:28:42.951Z,60.10
2022-11-10T21:31:27.828Z,59.88
2022-11-10T21:34:12.601Z,59.85
2022-11-10T21:36:57.600Z,59.71
2022-11-10T21:39:43.907Z,59.56
2022-11-10T21:42:34.267Z,59.77
2022-11-10T21:45:20.302Z,59.90
2022-11-10T21:48:05.077Z,59.67
2022-11-10T21:50:50.001Z,59.72
2022-11-10T21:53:34.881Z,59.72
2022-11-10T21:56:19.701Z,59.84
2022-11-10T21:59:04.579Z,59.96
2022-11-10T22:01:49.446Z,59.83
2022-11-10T22:04:34.356Z,60.02
2022-11-10T22:07:25.385Z,60.03
2022-11-10T22:10:28.960Z,59.91
2022-11-10T22:13:36.320Z,59.75
2022-11-10T22:16:46.780Z,59.75
2022-11-10T22:19:32.459Z,59.85
2022-11-10T22:22:17.432Z,59.59
2022-11-10T22:25:02.380Z,59.89
2022-11-10T22:27:47.284Z,59.92
2022-11-10T22:30:32.095Z,59.62
2022-11-10T22:33:30.550Z,59.62
2022-11-10T22:36:16.055Z,59.94
2022-11-10T22:39:03.694Z,60.06
2022-11-10T22:42:07.501Z,59.96
2022-11-10T22:44:52.489Z,59.92
2022-11-10T22:47:56.021Z,60.25
2022-11-10T22:50:41.193Z,60.40
2022-11-10T22:53:26.018Z,60.14
2022-11-10T22:56:11.271Z,60.43
2022-11-10T22:58:59.878Z,60.28
2022-11-10T23:01:45.659Z,60.27
2022-11-10T23:04:30.870Z,60.23
2022-11-10T23:07:15.681Z,60.41
2022-11-10T23:10:00.482Z,60.33
2022-11-10T23:12:45.270Z,60.37
2022-11-10T23:15:34.435Z,60.62
2022-11-10T23:18:19.977Z,60.61
2022-11-10T23:21:06.699Z,60.50
2022-11-10T23:23:51.560Z,60.46
2022-11-10T23:26:36.448Z,60.45
2022-11-10T23:29:21.302Z,60.73
2022-11-10T23:32:06.351Z,60.59
2022-11-10T23:34:51.192Z,60.74
2022-11-10T23:37:35.974Z,60.52
2022-11-10T23:40:20.926Z,60.83
2022-11-10T23:43:05.895Z,60.61
2022-11-10T23:46:06.452Z,60.75
2022-11-10T23:48:52.501Z,60.78
2022-11-10T23:51:37.413Z,60.82
2022-11-10T23:54:22.146Z,60.68
2022-11-10T23:57:06.947Z,60.61
2022-11-10T23:59:51.710Z,60.84
